Time;durP1;ratioP1;P1;durP2;ratioP2;P2;SDS_P1;SDS_P2;PMS_P1;PMS_P2;Temp;Humidity;BMP_temperature;BMP_pressure;BME280_temperature;BME280_humidity;BME280_pressure;Samples;Min_cycle;Max_cycle;Signal;HPM_P1;HPM_P2
2024/02/02 00:01:33;;;;;;;23.15;15.60;;;;;;;-0.18;100.00;98789.19;1225548;75;2924852;-64
2024/02/02 00:04:08;;;;;;;22.95;14.10;;;;;;;-0.21;100.00;98784.56;1225063;75;2919138;-66
2024/02/02 00:06:41;;;;;;;20.05;13.40;;;;;;;-0.11;100.00;98788.44;1226368;75;2913357;-65
2024/02/02 00:09:14;;;;;;;15.80;11.45;;;;;;;-0.04;100.00;98781.19;1224567;83;2914492;-65
2024/02/02 00:11:48;;;;;;;21.50;13.85;;;;;;;-0.27;100.00;98773.34;1225576;75;2913079;-65
2024/02/02 00:14:21;;;;;;;22.40;14.45;;;;;;;-0.11;100.00;98786.53;1226106;75;2911719;-64
2024/02/02 00:16:54;;;;;;;26.45;16.95;;;;;;;-0.26;100.00;98774.16;1225092;75;2920792;-65
2024/02/02 00:19:29;;;;;;;24.80;16.20;;;;;;;-0.28;100.00;98793.34;1224792;75;2913922;-64
2024/02/02 00:22:02;;;;;;;21.15;15.15;;;;;;;0.01;100.00;98784.69;1224344;75;2921653;-66
2024/02/02 00:24:35;;;;;;;22.20;13.35;;;;;;;0.10;100.00;98785.88;1225080;75;2925944;-64
2024/02/02 00:27:09;;;;;;;15.65;11.55;;;;;;;0.04;100.00;98784.69;1225613;75;2918740;-64
2024/02/02 00:29:45;;;;;;;14.20;10.55;;;;;;;0.04;100.00;98781.22;1225360;75;2917863;-64
2024/02/02 00:32:18;;;;;;;14.25;10.25;;;;;;;-0.05;100.00;98776.97;1225460;75;2920794;-66
2024/02/02 00:34:54;;;;;;;18.20;13.55;;;;;;;-0.17;100.00;98777.25;1225680;75;2916878;-66
2024/02/02 00:37:26;;;;;;;18.10;12.90;;;;;;;-0.07;100.00;98781.94;1223324;75;2915838;-66
2024/02/02 00:39:59;;;;;;;20.60;14.00;;;;;;;-0.37;100.00;98789.44;1225684;75;2928791;-65
2024/02/02 00:42:32;;;;;;;21.85;13.35;;;;;;;-0.21;100.00;98779.16;1224599;75;2919393;-65
2024/02/02 00:45:05;;;;;;;15.90;11.30;;;;;;;-0.12;100.00;98784.19;1224803;75;2920814;-65
2024/02/02 00:47:38;;;;;;;12.75;8.90;;;;;;;-0.14;100.00;98781.91;1225023;75;2917429;-65
2024/02/02 00:50:14;;;;;;;15.45;11.10;;;;;;;-0.41;100.00;98780.56;1225520;75;2921681;-65
2024/02/02 00:52:47;;;;;;;20.10;13.90;;;;;;;-0.43;100.00;98787.09;1226133;75;2911653;-64
2024/02/02 00:55:20;;;;;;;18.05;12.90;;;;;;;-0.16;100.00;98791.50;1225908;75;2918880;-67
2024/02/02 00:57:53;;;;;;;17.15;12.05;;;;;;;-0.25;100.00;98789.13;1223672;75;2920176;-63
2024/02/02 01:00:26;;;;;;;20.55;14.00;;;;;;;-0.41;100.00;98796.69;1225084;75;2918327;-68
2024/02/02 01:02:59;;;;;;;22.25;15.25;;;;;;;-0.49;100.00;98803.97;1225585;75;2922615;-67
2024/02/02 01:05:34;;;;;;;20.00;12.55;;;;;;;-0.19;100.00;98792.22;1225524;75;2915762;-67
2024/02/02 01:08:08;;;;;;;13.05;10.10;;;;;;;-0.15;100.00;98798.41;1225047;75;2913646;-64
2024/02/02 01:10:41;;;;;;;13.75;9.75;;;;;;;-0.08;100.00;98803.84;1224720;75;2920845;-67
2024/02/02 01:13:16;;;;;;;21.50;13.45;;;;;;;-0.76;100.00;98812.19;1224615;75;2919302;-64
2024/02/02 01:15:49;;;;;;;17.25;12.35;;;;;;;-0.38;100.00;98801.34;1225224;75;2918818;-65
2024/02/02 01:18:22;;;;;;;28.55;18.20;;;;;;;-0.77;100.00;98810.66;1224933;75;2923090;-64
2024/02/02 01:20:58;;;;;;;26.70;16.80;;;;;;;-0.56;100.00;98807.34;1224568;75;2930283;-64
2024/02/02 01:23:31;;;;;;;24.40;16.05;;;;;;;-0.76;100.00;98814.13;1224587;75;2920336;-66
2024/02/02 01:26:04;;;;;;;23.65;16.00;;;;;;;-0.65;100.00;98806.91;1225135;75;2916405;-68
2024/02/02 01:28:37;;;;;;;22.90;16.40;;;;;;;-0.51;100.00;98820.47;1226059;75;2926341;-65
2024/02/02 01:31:10;;;;;;;24.35;15.95;;;;;;;-0.69;100.00;98819.56;1224994;75;2917078;-65
2024/02/02 01:33:43;;;;;;;23.70;16.55;;;;;;;-0.90;100.00;98818.22;1224931;75;2917990;-64
2024/02/02 01:36:18;;;;;;;28.70;17.25;;;;;;;-0.91;100.00;98797.84;1225204;75;2914020;-64
2024/02/02 01:38:54;;;;;;;29.15;18.35;;;;;;;-0.96;100.00;98811.63;1225596;75;2912790;-65
2024/02/02 01:41:27;;;;;;;28.95;19.05;;;;;;;-0.91;100.00;98807.84;1224723;75;2918476;-63
2024/02/02 01:43:59;;;;;;;26.60;17.90;;;;;;;-0.73;100.00;98805.31;1224719;75;2924127;-65
2024/02/02 01:46:32;;;;;;;28.50;17.25;;;;;;;-0.99;100.00;98811.59;1224057;75;2920656;-65
2024/02/02 01:49:05;;;;;;;27.30;18.40;;;;;;;-0.77;100.00;98804.50;1224905;75;2918117;-65
2024/02/02 01:51:41;;;;;;;22.60;15.40;;;;;;;-0.66;100.00;98810.75;1224978;75;2912286;-65
2024/02/02 01:54:14;;;;;;;26.35;15.85;;;;;;;-0.90;100.00;98804.78;1225057;75;2916498;-65
2024/02/02 01:56:47;;;;;;;23.65;16.50;;;;;;;-0.82;100.00;98799.47;1225135;75;2917195;-64
2024/02/02 01:59:20;;;;;;;18.55;13.80;;;;;;;-0.66;100.00;98800.75;1224700;75;2922122;-63
2024/02/02 02:01:53;;;;;;;22.55;15.75;;;;;;;-0.70;100.00;98804.56;1224661;75;2924466;-64
2024/02/02 02:04:26;;;;;;;25.55;16.10;;;;;;;-0.77;100.00;98797.22;1225224;75;2920060;-66
2024/02/02 02:07:02;;;;;;;19.60;13.65;;;;;;;-0.59;100.00;98802.72;1225317;75;2917671;-66
2024/02/02 02:09:35;;;;;;;17.35;12.00;;;;;;;-0.77;100.00;98794.53;1225141;75;2918917;-64
2024/02/02 02:12:09;;;;;;;21.60;14.65;;;;;;;-0.69;100.00;98789.97;1225390;75;2914044;-67
2024/02/02 02:14:42;;;;;;;25.65;16.55;;;;;;;-1.12;100.00;98792.28;1225123;75;2915040;-65
2024/02/02 02:17:15;;;;;;;24.55;16.50;;;;;;;-0.95;100.00;98791.66;1225189;75;2921591;-64
2024/02/02 02:19:51;;;;;;;21.60;14.05;;;;;;;-0.75;100.00;98794.16;1225051;75;2919724;-64
2024/02/02 02:22:26;;;;;;;20.25;13.75;;;;;;;-0.82;100.00;98791.41;1225195;75;2921279;-67
2024/02/02 02:24:59;;;;;;;22.50;15.10;;;;;;;-0.78;100.00;98792.97;1226334;75;2918403;-66
2024/02/02 02:27:32;;;;;;;16.25;12.35;;;;;;;-0.65;100.00;98785.38;1224439;75;2918113;-65
2024/02/02 02:30:05;;;;;;;17.25;11.80;;;;;;;-0.74;100.00;98787.63;1225284;75;2920659;-66
2024/02/02 02:32:38;;;;;;;15.60;11.00;;;;;;;-0.64;100.00;98786.94;1225198;75;2915884;-66
2024/02/02 02:35:12;;;;;;;18.20;12.70;;;;;;;-0.90;100.00;98788.66;1224994;75;2917478;-65
2024/02/02 02:37:47;;;;;;;18.65;13.85;;;;;;;-0.70;100.00;98797.28;1224682;75;2918669;-65
2024/02/02 02:40:20;;;;;;;15.60;11.25;;;;;;;-0.64;100.00;98800.38;1225504;75;2925371;-66
2024/02/02 02:42:54;;;;;;;15.60;10.70;;;;;;;-0.59;100.00;98796.59;1224681;75;2923001;-67
2024/02/02 02:45:27;;;;;;;13.15;9.35;;;;;;;-0.60;100.00;98801.19;1224785;75;2915512;-64
2024/02/02 02:48:00;;;;;;;12.20;8.45;;;;;;;-0.60;100.00;98797.72;1225097;75;2920471;-66
2024/02/02 02:50:33;;;;;;;11.55;8.50;;;;;;;-0.61;100.00;98777.34;1224577;75;2918495;-64
2024/02/02 02:53:08;;;;;;;13.05;9.20;;;;;;;-0.68;100.00;98781.53;1223871;75;2923012;-66
2024/02/02 02:55:41;;;;;;;12.65;9.25;;;;;;;-0.69;100.00;98782.69;1225210;75;2918768;-65
2024/02/02 02:58:15;;;;;;;12.80;8.90;;;;;;;-0.63;100.00;98782.34;1225468;75;2918892;-64
2024/02/02 03:00:48;;;;;;;12.75;9.40;;;;;;;-0.79;100.00;98780.69;1225438;75;2915764;-64
2024/02/02 03:03:21;;;;;;;11.20;8.75;;;;;;;-0.77;100.00;98783.78;1225419;75;2914438;-65
2024/02/02 03:05:53;;;;;;;18.65;11.50;;;;;;;-0.87;100.00;98768.31;1224104;75;2926774;-66
2024/02/02 03:08:29;;;;;;;11.95;9.05;;;;;;;-0.85;100.00;98779.47;1225355;75;2925164;-65
2024/02/02 03:11:02;;;;;;;11.15;9.20;;;;;;;-0.81;100.00;98776.81;1224067;75;2920289;-64
2024/02/02 03:13:35;;;;;;;11.55;8.40;;;;;;;-0.82;100.00;98772.56;1225429;75;2923510;-66
2024/02/02 03:16:10;;;;;;;14.15;9.20;;;;;;;-0.86;100.00;98784.06;1225666;75;2911473;-65
2024/02/02 03:18:43;;;;;;;11.40;8.15;;;;;;;-0.91;100.00;98787.09;1224208;75;2925370;-65
2024/02/02 03:21:16;;;;;;;12.80;9.25;;;;;;;-0.91;100.00;98779.03;1224495;75;2927561;-67
2024/02/02 03:23:51;;;;;;;17.00;12.20;;;;;;;-1.18;100.00;98774.94;1225346;75;2919883;-62
2024/02/02 03:26:24;;;;;;;15.15;10.35;;;;;;;-1.03;100.00;98768.56;1224838;75;2917209;-64
2024/02/02 03:28:57;;;;;;;13.25;9.85;;;;;;;-1.04;100.00;98775.06;1225378;75;2916694;-67
2024/02/02 03:31:30;;;;;;;12.10;9.65;;;;;;;-1.11;100.00;98765.06;1225644;75;2916945;-66
2024/02/02 03:34:03;;;;;;;10.20;7.80;;;;;;;-1.06;100.00;98766.59;1223901;75;2958757;-64
2024/02/02 03:36:36;;;;;;;9.70;7.65;;;;;;;-1.11;100.00;98766.94;1224797;75;2923090;-66
2024/02/02 03:39:12;;;;;;;12.80;8.25;;;;;;;-1.30;100.00;98765.22;1223360;75;2939572;-64
2024/02/02 03:41:45;;;;;;;13.15;9.70;;;;;;;-1.25;100.00;98756.06;1224785;75;2920157;-67
2024/02/02 03:44:18;;;;;;;11.25;8.35;;;;;;;-1.26;100.00;98757.22;1224963;75;2912703;-64
2024/02/02 03:46:51;;;;;;;11.55;8.30;;;;;;;-1.32;100.00;98760.25;1225195;75;2915914;-65
2024/02/02 03:49:24;;;;;;;10.90;7.90;;;;;;;-1.35;100.00;98769.03;1225047;75;2921508;-66
2024/02/02 03:51:57;;;;;;;10.00;7.10;;;;;;;-1.35;100.00;98773.63;1225257;75;2918495;-66
2024/02/02 03:54:32;;;;;;;14.80;10.70;;;;;;;-1.64;100.00;98776.00;1224339;75;2923463;-65
2024/02/02 03:57:06;;;;;;;16.65;11.05;;;;;;;-1.56;100.00;98776.88;1225062;75;2921046;-64
2024/02/02 03:59:38;;;;;;;15.75;11.60;;;;;;;-1.85;100.00;98791.84;1224748;75;2922351;-66
2024/02/02 04:02:11;;;;;;;17.20;13.05;;;;;;;-1.75;100.00;98810.78;1224343;75;2920269;-64
2024/02/02 04:04:45;;;;;;;14.50;11.15;;;;;;;-1.50;100.00;98804.94;1224503;75;2926818;-66
2024/02/02 04:07:17;;;;;;;18.30;12.30;;;;;;;-1.60;100.00;98797.53;1225638;75;2920667;-64
2024/02/02 04:09:53;;;;;;;16.75;12.30;;;;;;;-1.62;100.00;98795.19;1224933;75;2916482;-66
2024/02/02 04:12:26;;;;;;;15.20;11.00;;;;;;;-1.63;100.00;98801.72;1224899;67;2925010;-65
2024/02/02 04:14:59;;;;;;;14.80;10.95;;;;;;;-1.66;100.00;98809.72;1225450;75;2929053;-65
2024/02/02 04:17:32;;;;;;;14.05;9.60;;;;;;;-1.58;100.00;98808.69;1225393;75;2924870;-63
2024/02/02 04:20:06;;;;;;;10.65;8.55;;;;;;;-1.60;100.00;98800.97;1225164;75;2920156;-64
2024/02/02 04:22:38;;;;;;;10.60;7.30;;;;;;;-1.67;100.00;98805.50;1224103;75;2925661;-66
2024/02/02 04:25:14;;;;;;;9.50;7.35;;;;;;;-1.80;100.00;98804.97;1224964;75;2915518;-67
2024/02/02 04:27:47;;;;;;;10.00;7.10;;;;;;;-1.77;100.00;98802.31;1225286;75;2927828;-67
2024/02/02 04:30:20;;;;;;;13.90;9.20;;;;;;;-1.81;100.00;98798.81;1225080;75;2929338;-65
2024/02/02 04:32:53;;;;;;;12.40;9.35;;;;;;;-1.72;100.00;98798.53;1224523;75;2930103;-67
2024/02/02 04:35:26;;;;;;;12.50;8.40;;;;;;;-1.75;100.00;98797.34;1224825;75;2922345;-65
2024/02/02 04:37:59;;;;;;;8.70;7.10;;;;;;;-1.74;100.00;98798.88;1224866;75;2925148;-66
2024/02/02 04:40:34;;;;;;;10.25;7.20;;;;;;;-1.94;100.00;98795.56;1224693;75;2928675;-66
2024/02/02 04:43:08;;;;;;;13.10;9.85;;;;;;;-1.93;100.00;98793.66;1225291;75;2919120;-64
2024/02/02 04:45:40;;;;;;;13.50;9.00;;;;;;;-1.88;100.00;98787.22;1225010;75;2930160;-65
2024/02/02 04:48:14;;;;;;;11.40;8.80;;;;;;;-1.92;100.00;98800.59;1224140;75;2925877;-65
2024/02/02 04:50:46;;;;;;;12.15;8.60;;;;;;;-1.95;100.00;98798.63;1224434;75;2929137;-66
2024/02/02 04:53:19;;;;;;;11.45;8.35;;;;;;;-1.85;100.00;98805.25;1224536;75;2923642;-65
2024/02/02 04:55:55;;;;;;;12.15;9.00;;;;;;;-2.12;100.00;98807.97;1224604;75;2923672;-66
2024/02/02 04:58:30;;;;;;;10.60;7.70;;;;;;;-1.98;100.00;98808.16;1224462;75;2918228;-63
2024/02/02 05:01:03;;;;;;;11.00;8.55;;;;;;;-2.04;100.00;98814.22;1224272;75;2918320;-65
2024/02/02 05:03:36;;;;;;;14.20;10.70;;;;;;;-2.16;100.00;98820.59;1224219;75;2931362;-65
2024/02/02 05:06:09;;;;;;;18.55;12.80;;;;;;;-2.23;100.00;98817.78;1225437;75;2917651;-65
2024/02/02 05:08:42;;;;;;;15.85;11.85;;;;;;;-2.07;100.00;98814.94;1224556;75;2921490;-65
2024/02/02 05:11:18;;;;;;;14.05;10.65;;;;;;;-1.98;100.00;98813.53;1224603;75;2922930;-66
2024/02/02 05:13:51;;;;;;;13.30;9.85;;;;;;;-1.91;100.00;98815.53;1224260;75;2926905;-66
2024/02/02 05:16:24;;;;;;;11.35;8.80;;;;;;;-2.12;100.00;98826.75;1223385;75;2924514;-64
2024/02/02 05:18:57;;;;;;;17.70;12.75;;;;;;;-2.18;100.00;98826.31;1224357;75;2919221;-66
2024/02/02 05:21:30;;;;;;;17.35;12.45;;;;;;;-2.09;100.00;98828.72;1224711;75;2921736;-66
2024/02/02 05:24:04;;;;;;;12.50;10.05;;;;;;;-2.02;100.00;98828.03;1224221;75;2919746;-66
2024/02/02 05:26:39;;;;;;;11.45;9.05;;;;;;;-2.19;100.00;98823.97;1224459;75;2926643;-66
2024/02/02 05:29:12;;;;;;;16.10;11.75;;;;;;;-2.23;100.00;98826.59;1222517;75;2933070;-64
2024/02/02 05:31:45;;;;;;;18.30;11.35;;;;;;;-2.28;100.00;98828.84;1224222;75;2921015;-65
2024/02/02 05:34:18;;;;;;;20.80;14.30;;;;;;;-2.36;100.00;98833.28;1224132;75;2921671;-64
2024/02/02 05:36:51;;;;;;;16.25;12.05;;;;;;;-2.14;100.00;98837.09;1224129;75;2922027;-65
2024/02/02 05:39:24;;;;;;;15.60;12.10;;;;;;;-2.16;100.00;98842.81;1223144;75;2930838;-62
2024/02/02 05:42:00;;;;;;;14.25;10.90;;;;;;;-2.23;100.00;98831.97;1224070;75;2925955;-65
2024/02/02 05:44:33;;;;;;;15.55;12.25;;;;;;;-2.27;100.00;98825.00;1224082;75;2928834;-65
2024/02/02 05:47:06;;;;;;;12.85;10.85;;;;;;;-2.18;100.00;98828.97;1224023;75;2921797;-66
2024/02/02 05:49:39;;;;;;;17.95;12.55;;;;;;;-2.26;100.00;98830.03;1224470;75;2921808;-64
2024/02/02 05:52:14;;;;;;;17.10;13.15;;;;;;;-2.13;100.00;98827.13;1223944;75;2921606;-66
2024/02/02 05:54:47;;;;;;;17.60;14.00;;;;;;;-2.20;100.00;98822.44;1223671;75;2924773;-65
2024/02/02 05:57:23;;;;;;;20.10;13.85;;;;;;;-2.24;100.00;98825.03;1224463;75;2927838;-66
2024/02/02 05:59:56;;;;;;;17.05;12.85;;;;;;;-2.34;100.00;98832.94;1224546;75;2925657;-66
2024/02/02 06:02:29;;;;;;;21.65;15.45;;;;;;;-2.32;100.00;98841.41;1224255;75;2924753;-63
2024/02/02 06:05:01;;;;;;;18.85;13.55;;;;;;;-2.34;100.00;98835.63;1223762;75;2926594;-64
2024/02/02 06:07:35;;;;;;;19.10;13.55;;;;;;;-2.37;100.00;98834.44;1223866;75;2926758;-63
2024/02/02 06:10:09;;;;;;;24.80;17.25;;;;;;;-2.75;100.00;98854.88;1223859;75;2923848;-64
2024/02/02 06:12:45;;;;;;;24.75;17.30;;;;;;;-2.54;100.00;98856.38;1223373;75;2927418;-66
2024/02/02 06:15:18;;;;;;;22.55;16.40;;;;;;;-2.52;100.00;98852.22;1223931;75;2924207;-63
2024/02/02 06:17:51;;;;;;;23.40;17.40;;;;;;;-2.49;100.00;98842.69;1224077;75;2922256;-64
2024/02/02 06:20:24;;;;;;;21.35;14.95;;;;;;;-2.34;100.00;98838.31;1224218;75;2926618;-66
2024/02/02 06:22:57;;;;;;;24.75;17.15;;;;;;;-2.58;100.00;98856.31;1223200;75;2921894;-64
2024/02/02 06:25:31;;;;;;;26.20;18.55;;;;;;;-2.49;100.00;98864.91;1224201;75;2923355;-65
2024/02/02 06:28:08;;;;;;;27.75;18.95;;;;;;;-2.48;100.00;98845.00;1223588;75;2924649;-66
2024/02/02 06:30:41;;;;;;;23.65;18.95;;;;;;;-2.50;100.00;98847.28;1224016;75;2931728;-67
2024/02/02 06:33:15;;;;;;;19.80;15.75;;;;;;;-2.31;100.00;98861.72;1223451;75;2925604;-65
2024/02/02 06:35:48;;;;;;;22.05;16.85;;;;;;;-2.34;100.00;98863.22;1224353;75;2923129;-67
2024/02/02 06:38:21;;;;;;;41.80;24.05;;;;;;;-2.46;100.00;98879.50;1224214;75;2925274;-64
2024/02/02 06:40:54;;;;;;;29.50;20.25;;;;;;;-2.26;100.00;98883.66;1223491;75;2929893;-63
2024/02/02 06:43:29;;;;;;;26.60;18.65;;;;;;;-2.01;100.00;98888.63;1223869;75;2917890;-67
2024/02/02 06:46:02;;;;;;;17.45;14.60;;;;;;;-2.00;100.00;98895.53;1224042;75;2934827;-65
2024/02/02 06:48:35;;;;;;;17.85;13.30;;;;;;;-1.99;100.00;98891.72;1223645;75;2933734;-66
2024/02/02 06:51:10;;;;;;;22.60;15.65;;;;;;;-2.12;100.00;98890.38;1224071;75;2919594;-64
2024/02/02 06:53:43;;;;;;;20.65;16.20;;;;;;;-1.90;100.00;98911.03;1223613;75;2924744;-65
2024/02/02 06:56:38;;;;;;;20.10;14.85;;;;;;;-1.84;100.00;98916.88;1223796;75;2930632;-66
2024/02/02 06:59:13;;;;;;;19.65;14.60;;;;;;;-1.81;100.00;98924.94;1224267;75;2918740;-65
2024/02/02 07:01:46;;;;;;;24.65;17.35;;;;;;;-1.69;100.00;98918.59;1224004;75;2925194;-63
2024/02/02 07:04:20;;;;;;;25.25;18.60;;;;;;;-1.56;100.00;98919.19;1224441;75;2924372;-67
2024/02/02 07:06:53;;;;;;;19.25;14.80;;;;;;;-1.51;100.00;98919.63;1223558;75;2932913;-64
2024/02/02 07:09:33;;;;;;;30.30;19.40;;;;;;;-0.95;100.00;98933.34;1223274;75;2925875;-64
2024/02/02 07:12:09;;;;;;;21.45;16.60;;;;;;;1.66;100.00;98945.00;1224485;75;2923480;-66
2024/02/02 07:14:55;;;;;;;21.75;18.15;;;;;;;1.76;100.00;98940.78;1224313;75;2938355;-65
2024/02/02 07:17:40;;;;;;;26.40;19.05;;;;;;;2.18;100.00;98947.34;1223805;75;2918877;-67
2024/02/02 07:20:35;;;;;;;24.70;17.70;;;;;;;2.90;100.00;98947.97;1223516;75;2926624;-65
2024/02/02 07:23:11;;;;;;;26.80;18.25;;;;;;;4.13;98.80;98946.81;1224054;75;2922013;-66
2024/02/02 07:25:44;;;;;;;20.60;14.45;;;;;;;6.27;82.77;98942.59;1223218;75;2970109;-66
2024/02/02 07:28:36;;;;;;;14.70;11.65;;;;;;;7.04;74.80;98959.84;1224093;75;2926203;-66
2024/02/02 07:31:13;;;;;;;23.10;15.80;;;;;;;6.60;76.62;98980.88;1223660;75;2925543;-65
2024/02/02 07:33:50;;;;;;;21.20;17.10;;;;;;;7.29;71.76;98969.44;1224344;75;2927610;-67
2024/02/02 07:36:33;;;;;;;16.85;14.10;;;;;;;6.48;74.59;98965.16;1223600;75;2930883;-64
2024/02/02 07:39:06;;;;;;;16.40;12.10;;;;;;;9.28;66.89;98962.97;1223262;75;2929245;-63
2024/02/02 07:41:39;;;;;;;16.00;11.95;;;;;;;9.43;63.84;98959.84;1224296;75;2935839;-65
2024/02/02 07:44:12;;;;;;;17.00;12.80;;;;;;;11.16;58.75;98936.56;1223457;75;2928305;-65
2024/02/02 07:46:48;;;;;;;15.60;11.30;;;;;;;11.61;56.23;98952.47;1224231;75;2924045;-63
2024/02/02 07:49:20;;;;;;;18.90;12.40;;;;;;;12.04;54.95;98945.31;1224025;75;2922070;-67
2024/02/02 07:51:53;;;;;;;18.85;13.15;;;;;;;11.83;55.64;98933.19;1222536;75;2934732;-65
2024/02/02 07:54:26;;;;;;;17.75;12.80;;;;;;;11.71;56.16;98940.34;1223632;75;2934545;-66
2024/02/02 07:56:59;;;;;;;21.80;15.90;;;;;;;8.82;62.55;98947.91;1223619;75;2925260;-64
2024/02/02 07:59:32;;;;;;;19.85;14.15;;;;;;;8.56;63.85;98947.78;1223366;75;2926338;-67
2024/02/02 08:02:08;;;;;;;19.90;13.55;;;;;;;8.50;65.22;98952.25;1223450;75;2931370;-64
2024/02/02 08:04:41;;;;;;;21.80;14.20;;;;;;;6.99;68.98;98961.09;1223930;75;2924818;-64
2024/02/02 08:07:14;;;;;;;24.10;15.85;;;;;;;7.66;68.56;98949.94;1222778;75;2922668;-67
2024/02/02 08:09:46;;;;;;;23.90;14.75;;;;;;;8.14;66.97;98944.19;1225263;75;2923040;-65
2024/02/02 08:12:19;;;;;;;23.50;15.70;;;;;;;7.74;67.50;98958.72;1224582;75;2919194;-65
2024/02/02 08:14:52;;;;;;;20.15;14.40;;;;;;;9.87;62.78;98955.38;1224427;75;2934320;-65
2024/02/02 08:17:28;;;;;;;17.70;12.85;;;;;;;11.02;60.40;98954.31;1224469;75;2915912;-66
2024/02/02 08:20:01;;;;;;;13.85;11.20;;;;;;;11.56;56.26;98944.06;1224922;75;2917172;-63
2024/02/02 08:22:34;;;;;;;13.70;10.35;;;;;;;11.63;56.79;98957.50;1224000;75;2929126;-67
2024/02/02 08:25:07;;;;;;;19.70;13.35;;;;;;;9.50;61.51;98960.41;1224458;75;2920209;-66
2024/02/02 08:27:42;;;;;;;13.75;11.10;;;;;;;10.11;59.86;98961.25;1225159;75;2932344;-64
2024/02/02 08:30:15;;;;;;;17.75;12.95;;;;;;;8.59;62.83;98946.97;1224327;75;2924933;-68
2024/02/02 08:32:51;;;;;;;17.45;13.25;;;;;;;8.66;64.55;98956.91;1225110;75;2921418;-67
2024/02/02 08:35:24;;;;;;;18.75;13.75;;;;;;;8.53;65.48;98952.16;1224074;75;2925570;-65
2024/02/02 08:38:01;;;;;;;18.55;12.95;;;;;;;9.84;62.56;98930.84;1224659;75;2921783;-66
2024/02/02 08:40:42;;;;;;;16.95;11.70;;;;;;;9.32;63.11;98941.03;1224402;75;2922335;-66
2024/02/02 08:43:20;;;;;;;20.45;15.95;;;;;;;7.12;69.39;98952.28;1224766;75;2924215;-67
2024/02/02 08:46:13;;;;;;;19.75;14.20;;;;;;;8.42;66.57;98951.69;1224782;75;2924786;-66
2024/02/02 08:48:50;;;;;;;22.00;15.90;;;;;;;6.02;72.38;98928.66;1224387;75;2922634;-65
2024/02/02 08:51:51;;;;;;;19.00;14.45;;;;;;;7.81;69.22;98944.94;1224857;75;2918694;-64
2024/02/02 08:54:49;;;;;;;23.80;17.10;;;;;;;6.02;72.66;98937.56;1224654;75;2928934;-64
2024/02/02 08:57:33;;;;;;;19.90;15.35;;;;;;;7.89;69.10;98938.13;1224578;75;2981696;-66
2024/02/02 09:00:19;;;;;;;23.10;16.70;;;;;;;7.30;70.56;98930.13;1224429;75;2922388;-65
2024/02/02 09:03:08;;;;;;;19.70;15.15;;;;;;;7.04;72.44;98943.50;1224137;75;2919369;-66
2024/02/02 09:05:58;;;;;;;17.55;12.95;;;;;;;8.91;65.97;98932.41;1224675;75;2918819;-67
2024/02/02 09:08:42;;;;;;;21.20;15.65;;;;;;;8.13;68.78;98940.69;1223695;75;2922425;-67
2024/02/02 09:11:24;;;;;;;23.75;14.10;;;;;;;9.06;67.00;98940.97;1224435;75;2925382;-67
2024/02/02 09:14:14;;;;;;;29.10;17.60;;;;;;;7.07;72.11;98947.31;1225006;75;2917720;-65
2024/02/02 09:16:51;;;;;;;24.05;16.25;;;;;;;7.45;73.21;98931.34;1225822;75;2920588;-65
2024/02/02 09:19:42;;;;;;;22.90;14.80;;;;;;;7.08;74.13;98938.75;1224778;75;2928602;-65
2024/02/02 09:22:21;;;;;;;21.55;15.35;;;;;;;8.02;72.36;98932.00;1223751;75;2925590;-66
2024/02/02 09:24:55;;;;;;;21.95;16.65;;;;;;;7.66;71.86;98933.59;1224489;75;2927619;-68
2024/02/02 09:27:39;;;;;;;24.05;16.25;;;;;;;8.81;73.90;98928.03;1224950;75;2916117;-65
2024/02/02 09:30:24;;;;;;;20.20;14.30;;;;;;;9.29;69.25;98923.53;1224300;75;2921959;-65
2024/02/02 09:32:57;;;;;;;20.20;14.60;;;;;;;8.20;71.29;98928.81;1224126;75;2925934;-65
2024/02/02 09:35:56;;;;;;;18.60;13.85;;;;;;;9.03;70.00;98920.00;1224518;75;2917041;-66
2024/02/02 09:38:32;;;;;;;17.25;12.60;;;;;;;8.79;69.17;98913.28;1223916;75;2927044;-66
2024/02/02 09:41:44;;;;;;;21.90;15.45;;;;;;;7.65;72.76;98913.00;1223777;75;2920274;-67
2024/02/02 09:44:46;;;;;;;23.75;16.95;;;;;;;7.49;75.35;98917.66;1223657;75;2914916;-66
2024/02/02 09:47:54;;;;;;;23.40;16.20;;;;;;;7.91;74.28;98929.50;1223600;75;2927543;-66
2024/02/02 09:51:01;;;;;;;21.15;16.70;;;;;;;7.29;77.72;98925.84;1196643;75;14183731;-62
2024/02/02 09:54:31;;;;;;;21.85;15.15;;;;;;;7.45;77.58;98932.09;1040527;75;8091140;-66
2024/02/02 09:57:18;;;;;;;21.20;14.70;;;;;;;7.21;78.76;98930.69;1141707;75;5511534;-66
2024/02/02 10:00:05;;;;;;;22.83;16.17;;;;;;;7.04;80.76;98911.59;1089869;75;10282653;-62
2024/02/02 10:02:59;;;;;;;20.05;14.75;;;;;;;7.51;78.42;98937.09;1222253;75;2917723;-64
2024/02/02 10:05:58;;;;;;;24.20;16.40;;;;;;;8.27;77.06;98915.78;1221454;75;2924975;-65
2024/02/02 10:09:10;;;;;;;21.60;15.30;;;;;;;8.98;73.59;98927.97;1224379;75;2924215;-65
2024/02/02 10:12:16;;;;;;;22.80;15.15;;;;;;;9.82;70.42;98917.63;1223042;75;2933446;-65
2024/02/02 10:15:30;;;;;;;24.70;16.65;;;;;;;8.73;72.17;98926.69;1223012;75;2921006;-67
2024/02/02 10:18:25;;;;;;;22.25;14.20;;;;;;;10.27;68.78;98915.78;1223746;75;2929823;-67
2024/02/02 10:21:04;;;;;;;22.10;16.30;;;;;;;9.68;70.30;98912.63;1224185;67;2925944;-66
2024/02/02 10:24:17;;;;;;;24.45;17.55;;;;;;;9.87;69.56;98902.66;1225117;75;2923853;-64
2024/02/02 10:27:13;;;;;;;24.55;16.50;;;;;;;11.08;65.37;98903.16;1224709;75;2922734;-67
2024/02/02 10:30:06;;;;;;;23.30;15.45;;;;;;;12.31;60.99;98897.16;1221494;75;3001295;-66
2024/02/02 10:33:15;;;;;;;23.05;15.10;;;;;;;12.36;60.57;98891.84;1224068;75;2924186;-68
2024/02/02 10:36:03;;;;;;;24.70;16.70;;;;;;;11.81;62.92;98885.47;1224658;75;2922089;-65
2024/02/02 10:38:59;;;;;;;24.20;16.70;;;;;;;11.27;63.75;98884.84;1224585;75;2924167;-66
2024/02/02 10:41:44;;;;;;;25.95;17.15;;;;;;;11.18;64.64;98887.53;1223821;75;2924460;-67
2024/02/02 10:44:32;;;;;;;22.90;16.05;;;;;;;11.32;62.83;98892.47;1224941;75;2915514;-65
2024/02/02 10:47:23;;;;;;;24.50;16.50;;;;;;;11.04;63.88;98877.88;1224691;75;2923479;-66
2024/02/02 10:50:08;;;;;;;22.25;15.50;;;;;;;12.30;62.48;98860.72;1224346;75;2922175;-66
2024/02/02 10:53:07;;;;;;;22.90;15.90;;;;;;;12.21;61.58;98865.44;1225004;75;2930308;-67
2024/02/02 10:56:05;;;;;;;21.20;15.30;;;;;;;12.46;60.15;98867.09;1224708;75;2936199;-64
2024/02/02 10:58:55;;;;;;;19.50;13.80;;;;;;;12.30;61.65;98879.94;1225113;75;2918073;-67
2024/02/02 11:01:37;;;;;;;19.30;14.40;;;;;;;12.75;59.91;98864.66;1224571;75;2920730;-67
2024/02/02 11:04:24;;;;;;;25.45;14.50;;;;;;;11.55;61.01;98861.03;1224783;75;2922657;-64
2024/02/02 11:07:10;;;;;;;19.80;13.90;;;;;;;12.55;60.10;98856.13;1224753;75;2919560;-68
2024/02/02 11:09:56;;;;;;;18.55;13.45;;;;;;;12.88;58.62;98852.72;1224696;75;2921071;-66
2024/02/02 11:12:47;;;;;;;18.90;13.90;;;;;;;12.06;60.28;98848.81;1224803;75;2920570;-68
2024/02/02 11:15:39;;;;;;;17.85;14.10;;;;;;;11.90;60.89;98844.38;1225119;75;2922460;-65
2024/02/02 11:18:34;;;;;;;18.60;13.55;;;;;;;12.46;58.78;98829.44;1224889;75;2921818;-65
2024/02/02 11:21:38;;;;;;;15.75;12.45;;;;;;;13.09;57.94;98829.75;1224519;75;2921096;-65
2024/02/02 11:24:22;;;;;;;15.45;11.80;;;;;;;14.09;55.19;98823.38;1225224;75;2923454;-64
2024/02/02 11:27:04;;;;;;;20.60;13.10;;;;;;;13.35;56.04;98835.63;1224667;75;2925301;-65
2024/02/02 11:29:52;;;;;;;20.45;14.35;;;;;;;13.26;56.77;98826.63;1223634;75;2927531;-68
2024/02/02 11:33:05;;;;;;;17.45;13.10;;;;;;;13.76;56.31;98818.75;1224057;75;2922470;-65
2024/02/02 11:35:51;;;;;;;17.00;13.00;;;;;;;13.10;57.43;98814.00;1223558;75;2919802;-67
2024/02/02 11:38:44;;;;;;;17.50;12.50;;;;;;;12.36;59.13;98806.72;1224274;75;2930210;-65
2024/02/02 11:41:22;;;;;;;16.85;11.60;;;;;;;13.23;57.85;98800.81;1225032;75;2920314;-64
2024/02/02 11:43:56;;;;;;;17.30;13.00;;;;;;;12.13;59.48;98807.34;1224751;75;2921923;-67
2024/02/02 11:46:33;;;;;;;17.90;11.75;;;;;;;12.79;58.80;98804.03;1223773;75;2920982;-65
2024/02/02 11:49:12;;;;;;;17.90;12.35;;;;;;;12.07;59.80;98811.91;1224430;75;2921175;-65